createdAt,value
2017-11-21T00:02:21.068Z,6.80
2017-11-21T00:04:47.798Z,3.57
2017-11-21T00:07:14.507Z,5.23
2017-11-21T00:09:41.241Z,5.93
2017-11-21T00:12:07.973Z,3.73
2017-11-21T00:14:34.676Z,3.70
2017-11-21T00:17:01.398Z,4.17
2017-11-21T00:19:28.116Z,11.07
2017-11-21T00:21:54.826Z,6.40
2017-11-21T00:24:21.547Z,5.33
2017-11-21T00:26:48.262Z,3.17
2017-11-21T00:29:14.980Z,5.30
2017-11-21T00:31:41.698Z,5.97
2017-11-21T00:34:08.419Z,5.83
2017-11-21T00:36:35.134Z,4.00
2017-11-21T00:39:01.853Z,4.50
2017-11-21T00:41:28.588Z,4.37
2017-11-21T00:43:55.301Z,3.53
2017-11-21T00:46:22.020Z,4.03
2017-11-21T00:48:48.788Z,3.80
2017-11-21T00:51:15.604Z,2.93
2017-11-21T00:53:42.332Z,5.27
2017-11-21T00:56:09.094Z,4.50
2017-11-21T00:58:35.810Z,6.37
2017-11-21T01:01:02.532Z,4.47
2017-11-21T01:03:29.257Z,5.27
2017-11-21T01:05:55.977Z,3.37
2017-11-21T01:08:22.700Z,6.23
2017-11-21T01:10:49.436Z,4.00
2017-11-21T01:13:16.142Z,4.30
2017-11-21T01:15:42.887Z,3.23
2017-11-21T01:18:09.648Z,5.10
2017-11-21T01:20:36.426Z,4.00
2017-11-21T01:23:03.149Z,3.57
2017-11-21T01:25:29.871Z,4.40
2017-11-21T01:27:56.587Z,3.50
2017-11-21T01:30:23.309Z,6.33
2017-11-21T01:32:50.058Z,4.17
2017-11-21T01:35:16.775Z,3.50
2017-11-21T01:37:43.483Z,4.27
2017-11-21T01:40:10.215Z,5.40
2017-11-21T01:42:37.007Z,5.70
2017-11-21T01:45:03.733Z,7.10
2017-11-21T01:47:30.438Z,6.13
2017-11-21T01:49:57.156Z,3.57
2017-11-21T01:52:23.870Z,3.53
2017-11-21T01:54:50.609Z,4.50
2017-11-21T01:57:17.328Z,3.90
2017-11-21T01:59:44.053Z,4.70
2017-11-21T02:02:10.774Z,6.13
2017-11-21T02:04:37.489Z,7.47
2017-11-21T02:07:04.191Z,3.73
2017-11-21T02:09:30.942Z,4.50
2017-11-21T02:11:57.664Z,9.13
2017-11-21T02:14:24.384Z,5.83
2017-11-21T02:16:51.116Z,5.40
2017-11-21T02:19:17.869Z,4.57
2017-11-21T02:21:44.742Z,3.97
2017-11-21T02:24:11.495Z,5.07
2017-11-21T02:26:38.230Z,5.30
2017-11-21T02:29:04.979Z,4.27
2017-11-21T02:31:31.746Z,7.73
2017-11-21T02:33:58.537Z,5.20
2017-11-21T02:36:25.387Z,5.37
2017-11-21T02:38:52.112Z,5.60
2017-11-21T02:41:18.862Z,6.67
2017-11-21T02:43:45.633Z,5.53
2017-11-21T02:46:12.407Z,4.60
2017-11-21T02:48:39.169Z,5.30
2017-11-21T02:51:05.924Z,6.60
2017-11-21T02:53:32.687Z,4.87
2017-11-21T02:55:59.428Z,4.63
2017-11-21T02:58:26.191Z,5.63
2017-11-21T03:00:52.944Z,4.20
2017-11-21T03:03:19.669Z,4.97
2017-11-21T03:05:46.397Z,5.27
2017-11-21T03:08:13.154Z,5.53
2017-11-21T03:10:39.875Z,6.63
2017-11-21T03:13:06.628Z,5.63
2017-11-21T03:15:33.347Z,5.23
2017-11-21T03:18:00.072Z,6.37
2017-11-21T03:20:32.758Z,5.80
2017-11-21T03:23:05.362Z,6.63
2017-11-21T03:25:37.872Z,5.87
2017-11-21T03:28:04.618Z,9.10
2017-11-21T03:30:31.354Z,7.13
2017-11-21T03:32:58.082Z,7.20
2017-11-21T03:35:24.814Z,9.33
2017-11-21T03:37:51.576Z,7.67
2017-11-21T03:40:18.301Z,7.47
2017-11-21T03:42:45.036Z,11.27
2017-11-21T03:45:11.753Z,9.87
2017-11-21T03:47:38.544Z,13.20
2017-11-21T03:50:05.273Z,12.73
2017-11-21T03:52:32.004Z,9.67
2017-11-21T03:54:58.731Z,9.30
2017-11-21T03:57:25.454Z,10.03
2017-11-21T03:59:52.180Z,11.03
2017-11-21T04:02:18.929Z,13.60
2017-11-21T04:04:45.650Z,8.80
2017-11-21T04:07:12.383Z,8.80
2017-11-21T04:09:39.120Z,6.73
2017-11-21T04:12:05.855Z,12.30
2017-11-21T04:14:32.584Z,11.80
2017-11-21T04:16:59.305Z,7.03
2017-11-21T04:19:26.033Z,10.37
2017-11-21T04:21:52.778Z,8.73
2017-11-21T04:24:19.501Z,7.33
2017-11-21T04:26:46.211Z,10.13
2017-11-21T04:29:12.964Z,10.10
2017-11-21T04:31:39.699Z,8.50
2017-11-21T04:34:06.429Z,11.47
2017-11-21T04:36:33.195Z,9.07
2017-11-21T04:38:59.939Z,11.88
2017-11-21T04:41:26.652Z,9.67
2017-11-21T04:43:53.378Z,11.37
2017-11-21T04:46:20.092Z,9.50
2017-11-21T04:48:46.807Z,9.03
2017-11-21T04:51:13.560Z,8.03
2017-11-21T04:53:40.293Z,7.77
2017-11-21T04:56:07.056Z,8.85
2017-11-21T04:58:33.809Z,8.63
2017-11-21T05:01:00.535Z,8.27
2017-11-21T05:03:27.415Z,8.73
2017-11-21T05:05:54.166Z,9.37
2017-11-21T05:08:20.886Z,8.00
2017-11-21T05:10:47.624Z,6.97
2017-11-21T05:13:14.576Z,7.03
2017-11-21T05:15:41.290Z,6.73
2017-11-21T05:18:08.033Z,8.52
2017-11-21T05:20:34.791Z,14.73
2017-11-21T05:23:01.514Z,11.73
2017-11-21T05:25:28.252Z,9.27
2017-11-21T05:27:54.995Z,7.60
2017-11-21T05:30:21.731Z,7.30
2017-11-21T05:32:54.510Z,8.80
2017-11-21T05:35:21.261Z,11.60
2017-11-21T05:37:47.993Z,10.90
2017-11-21T05:40:14.738Z,8.47
2017-11-21T05:42:41.480Z,10.67
2017-11-21T05:45:08.220Z,6.37
2017-11-21T05:47:34.954Z,9.65
2017-11-21T05:50:01.739Z,12.93
2017-11-21T05:52:28.471Z,8.90
2017-11-21T05:54:55.315Z,8.55
2017-11-21T05:57:22.058Z,14.60
2017-11-21T05:59:48.788Z,12.03
2017-11-21T06:02:15.556Z,9.35
2017-11-21T06:04:42.276Z,8.40
2017-11-21T06:07:09.012Z,8.00
2017-11-21T06:09:35.719Z,7.90
2017-11-21T06:12:02.471Z,9.03
2017-11-21T06:14:29.184Z,8.43
2017-11-21T06:16:55.905Z,8.33
2017-11-21T06:19:22.628Z,9.67
2017-11-21T06:21:49.347Z,9.07
2017-11-21T06:24:16.067Z,11.27
2017-11-21T06:26:42.802Z,12.83
2017-11-21T06:29:09.549Z,13.43
2017-11-21T06:31:36.282Z,12.57
2017-11-21T06:34:03.025Z,15.00
2017-11-21T06:36:29.754Z,10.43
2017-11-21T06:38:56.488Z,12.48
2017-11-21T06:41:23.267Z,8.30
2017-11-21T06:43:50.000Z,6.97
2017-11-21T06:46:16.728Z,5.90
2017-11-21T06:48:43.439Z,6.40
2017-11-21T06:51:10.147Z,6.43
2017-11-21T06:53:36.871Z,6.97
2017-11-21T06:56:03.635Z,6.33
2017-11-21T06:58:30.362Z,8.10
2017-11-21T07:00:57.083Z,7.50
2017-11-21T07:03:23.829Z,11.57
2017-11-21T07:05:50.548Z,4.90
2017-11-21T07:08:17.261Z,6.03
2017-11-21T07:10:43.989Z,8.40
2017-11-21T07:13:10.699Z,10.60
2017-11-21T07:15:37.411Z,10.17
2017-11-21T07:18:04.119Z,12.27
2017-11-21T07:20:30.832Z,13.50
2017-11-21T07:22:57.546Z,11.93
2017-11-21T07:25:24.271Z,10.17
2017-11-21T07:27:50.972Z,7.60
2017-11-21T07:30:17.695Z,20.07
2017-11-21T07:32:44.411Z,13.57
2017-11-21T07:35:11.142Z,10.93
2017-11-21T07:37:37.859Z,13.50
2017-11-21T07:40:04.611Z,15.07
2017-11-21T07:42:31.324Z,11.70
2017-11-21T07:44:58.032Z,26.10
2017-11-21T07:47:24.745Z,14.70
2017-11-21T07:49:51.455Z,19.67
2017-11-21T07:52:18.173Z,19.37
2017-11-21T07:54:44.885Z,17.07
2017-11-21T07:57:11.597Z,11.40
2017-11-21T07:59:38.338Z,10.00
2017-11-21T08:02:05.072Z,16.70
2017-11-21T08:04:31.817Z,16.53
2017-11-21T08:06:58.702Z,12.97
2017-11-21T08:09:25.443Z,15.87
2017-11-21T08:11:52.184Z,19.27
2017-11-21T08:14:18.921Z,16.70
2017-11-21T08:16:45.652Z,13.03
2017-11-21T08:19:12.399Z,16.97
2017-11-21T08:21:39.108Z,14.77
2017-11-21T08:24:05.873Z,12.30
2017-11-21T08:26:32.580Z,15.63
2017-11-21T08:28:59.291Z,14.00
2017-11-21T08:31:26.022Z,15.67
2017-11-21T08:33:52.771Z,21.37
2017-11-21T08:36:19.505Z,17.10
2017-11-21T08:38:46.261Z,11.57
2017-11-21T08:41:12.988Z,14.03
2017-11-21T08:43:39.705Z,13.20
2017-11-21T08:46:06.434Z,12.17
2017-11-21T08:48:33.279Z,10.57
2017-11-21T08:50:59.995Z,10.10
2017-11-21T08:53:26.730Z,12.27
2017-11-21T08:55:53.460Z,11.30
2017-11-21T08:58:20.167Z,10.27
2017-11-21T09:00:46.911Z,9.23
2017-11-21T09:03:13.616Z,12.00
2017-11-21T09:05:40.328Z,15.70
2017-11-21T09:08:07.044Z,17.10
2017-11-21T09:10:33.757Z,17.30
2017-11-21T09:13:00.476Z,17.13
2017-11-21T09:15:27.202Z,19.97
2017-11-21T09:17:53.906Z,13.53
2017-11-21T09:20:20.617Z,14.60
2017-11-21T09:22:47.346Z,27.53
2017-11-21T09:25:14.070Z,12.77
2017-11-21T09:27:40.795Z,14.83
2017-11-21T09:30:07.515Z,13.10
2017-11-21T09:32:34.231Z,22.60
2017-11-21T09:35:00.947Z,18.03
2017-11-21T09:37:27.663Z,12.17
2017-11-21T09:39:54.372Z,13.30
2017-11-21T09:42:21.078Z,12.43
2017-11-21T09:44:47.795Z,12.53
2017-11-21T09:47:14.520Z,16.73
2017-11-21T09:49:41.252Z,15.57
2017-11-21T09:52:07.961Z,16.83
2017-11-21T09:54:34.684Z,16.53
2017-11-21T09:57:01.408Z,15.00
2017-11-21T09:59:28.252Z,15.70
2017-11-21T10:01:54.976Z,16.37
2017-11-21T10:04:21.700Z,15.33
2017-11-21T10:06:48.431Z,15.60
2017-11-21T10:09:15.142Z,17.47
2017-11-21T10:11:41.883Z,14.73
2017-11-21T10:14:08.597Z,9.93
2017-11-21T10:16:35.312Z,15.40
2017-11-21T10:19:02.023Z,17.40
2017-11-21T10:21:28.763Z,10.43
2017-11-21T10:23:55.483Z,12.90
2017-11-21T10:26:22.210Z,13.30
2017-11-21T10:28:48.920Z,14.80
2017-11-21T10:31:15.652Z,14.10
2017-11-21T10:33:42.360Z,14.43
2017-11-21T10:36:09.098Z,10.07
2017-11-21T10:38:35.820Z,10.83
2017-11-21T10:41:02.543Z,11.37
2017-11-21T10:43:29.297Z,12.90
2017-11-21T10:45:56.010Z,13.50
2017-11-21T10:48:22.725Z,17.10
2017-11-21T10:50:49.436Z,12.70
2017-11-21T10:53:16.155Z,10.27
2017-11-21T10:55:42.868Z,15.93
2017-11-21T10:58:09.588Z,7.93
2017-11-21T11:00:36.324Z,12.90
2017-11-21T11:03:03.063Z,7.60
2017-11-21T11:05:29.856Z,10.73
2017-11-21T11:07:56.620Z,10.90
2017-11-21T11:10:23.351Z,9.57
2017-11-21T11:12:50.135Z,15.80
2017-11-21T11:15:16.871Z,12.10
2017-11-21T11:17:43.600Z,9.47
2017-11-21T11:20:10.340Z,8.93
2017-11-21T11:22:37.095Z,8.53
2017-11-21T11:25:03.825Z,9.00
2017-11-21T11:27:30.573Z,12.27
2017-11-21T11:29:57.305Z,8.97
2017-11-21T11:32:24.051Z,8.87
2017-11-21T11:34:50.817Z,13.20
2017-11-21T11:37:17.556Z,13.03
2017-11-21T11:39:44.312Z,21.67
2017-11-21T11:42:11.056Z,23.73
2017-11-21T11:44:37.799Z,19.03
2017-11-21T11:47:04.535Z,16.03
2017-11-21T11:49:31.307Z,20.90
2017-11-21T11:51:58.060Z,20.53
2017-11-21T11:54:24.792Z,14.70
2017-11-21T11:56:51.549Z,19.30
2017-11-21T11:59:18.305Z,11.37
2017-11-21T12:01:45.045Z,11.67
2017-11-21T12:04:11.821Z,9.80
2017-11-21T12:06:38.561Z,8.83
2017-11-21T12:09:05.315Z,9.00
2017-11-21T12:11:32.052Z,9.87
2017-11-21T12:13:58.793Z,21.20
2017-11-21T12:16:25.623Z,17.40
2017-11-21T12:18:52.380Z,10.53
2017-11-21T12:21:19.106Z,10.90
2017-11-21T12:23:45.846Z,17.60
2017-11-21T12:26:12.580Z,10.40
2017-11-21T12:28:39.348Z,11.10
2017-11-21T12:31:06.170Z,10.20
2017-11-21T12:33:32.920Z,15.90
2017-11-21T12:35:59.662Z,11.20
2017-11-21T12:38:26.392Z,14.07
2017-11-21T12:40:53.137Z,13.30
2017-11-21T12:43:19.877Z,12.30
2017-11-21T12:45:46.625Z,10.20
2017-11-21T12:48:13.373Z,9.67
2017-11-21T12:50:40.133Z,26.53
2017-11-21T12:53:06.888Z,12.03
2017-11-21T12:55:33.666Z,10.87
2017-11-21T12:58:00.398Z,9.37
2017-11-21T13:00:27.146Z,8.30
2017-11-21T13:02:53.901Z,10.90
2017-11-21T13:05:20.644Z,14.53
2017-11-21T13:07:47.402Z,7.30
2017-11-21T13:10:14.158Z,10.70
2017-11-21T13:12:40.897Z,9.97
2017-11-21T13:15:07.749Z,8.17
2017-11-21T13:17:34.495Z,13.10
2017-11-21T13:20:01.267Z,8.77
2017-11-21T13:22:28.035Z,7.63
2017-11-21T13:24:54.798Z,8.37
2017-11-21T13:27:21.567Z,9.07
2017-11-21T13:29:48.328Z,8.97
2017-11-21T13:32:15.067Z,9.87
2017-11-21T13:34:41.812Z,8.67
2017-11-21T13:37:08.568Z,8.53
2017-11-21T13:39:35.333Z,10.00
2017-11-21T13:42:02.158Z,14.10
2017-11-21T13:44:28.936Z,10.47
2017-11-21T13:46:55.703Z,13.03
2017-11-21T13:49:22.463Z,9.60
2017-11-21T13:51:49.336Z,9.60
2017-11-21T13:54:16.088Z,16.00
2017-11-21T13:56:43.019Z,12.00
2017-11-21T13:59:09.772Z,12.20
2017-11-21T14:01:36.572Z,7.40
2017-11-21T14:04:03.379Z,11.83
2017-11-21T14:06:30.121Z,9.07
2017-11-21T14:08:56.893Z,11.40
2017-11-21T14:11:23.643Z,9.13
2017-11-21T14:13:50.379Z,10.43
2017-11-21T14:16:17.132Z,10.80
2017-11-21T14:18:43.889Z,15.43
2017-11-21T14:21:10.651Z,11.40
2017-11-21T14:23:37.399Z,13.17
2017-11-21T14:26:04.124Z,11.00
2017-11-21T14:28:30.840Z,15.70
2017-11-21T14:30:57.584Z,16.73
2017-11-21T14:33:24.328Z,12.17
2017-11-21T14:35:51.068Z,15.83
2017-11-21T14:38:17.816Z,9.47
2017-11-21T14:40:44.545Z,11.20
2017-11-21T14:43:11.312Z,12.03
2017-11-21T14:45:38.045Z,10.67
2017-11-21T14:48:04.780Z,14.90
2017-11-21T14:50:31.512Z,9.57
2017-11-21T14:52:58.275Z,8.80
2017-11-21T14:55:25.175Z,13.80
2017-11-21T14:57:51.914Z,10.97
2017-11-21T15:00:18.684Z,15.80
2017-11-21T15:02:45.420Z,16.77
2017-11-21T15:05:12.160Z,11.70
2017-11-21T15:07:38.899Z,16.37
2017-11-21T15:10:05.631Z,16.83
2017-11-21T15:12:32.368Z,15.67
2017-11-21T15:14:59.108Z,15.67
2017-11-21T15:17:25.851Z,12.40
2017-11-21T15:19:52.564Z,10.43
2017-11-21T15:22:19.319Z,11.90
2017-11-21T15:24:46.070Z,13.90
2017-11-21T15:27:12.802Z,9.53
2017-11-21T15:29:39.573Z,13.83
2017-11-21T15:32:06.294Z,13.53
2017-11-21T15:34:33.035Z,15.97
2017-11-21T15:36:59.749Z,19.50
2017-11-21T15:39:26.497Z,20.70
2017-11-21T15:41:53.215Z,20.77
2017-11-21T15:44:19.974Z,18.33
2017-11-21T15:46:46.726Z,16.10
2017-11-21T15:49:13.611Z,12.33
2017-11-21T15:51:40.366Z,12.57
2017-11-21T15:54:07.108Z,11.97
2017-11-21T15:56:33.821Z,15.80
2017-11-21T15:59:00.556Z,15.30
2017-11-21T16:01:27.317Z,11.57
2017-11-21T16:03:54.065Z,16.67
2017-11-21T16:06:20.794Z,13.13
2017-11-21T16:08:47.528Z,13.30
2017-11-21T16:11:14.251Z,18.17
2017-11-21T16:13:41.009Z,24.33
2017-11-21T16:16:07.729Z,14.93
2017-11-21T16:18:34.529Z,13.70
2017-11-21T16:21:01.261Z,17.27
2017-11-21T16:23:27.999Z,15.57
2017-11-21T16:25:54.811Z,16.13
2017-11-21T16:28:21.524Z,12.33
2017-11-21T16:30:48.231Z,15.77
2017-11-21T16:33:14.985Z,15.10
2017-11-21T16:35:41.725Z,11.70
2017-11-21T16:38:08.466Z,11.43
2017-11-21T16:40:35.211Z,13.47
2017-11-21T16:43:01.977Z,15.90
2017-11-21T16:45:28.740Z,10.67
2017-11-21T16:47:55.473Z,14.40
2017-11-21T16:50:22.227Z,15.17
2017-11-21T16:52:48.984Z,23.17
2017-11-21T16:55:15.722Z,11.10
2017-11-21T16:57:42.497Z,17.40
2017-11-21T17:00:09.260Z,12.47
2017-11-21T17:02:35.986Z,14.13
2017-11-21T17:05:02.755Z,14.23
2017-11-21T17:07:29.489Z,13.73
2017-11-21T17:09:56.248Z,19.07
2017-11-21T17:12:22.993Z,12.03
2017-11-21T17:14:49.748Z,16.53
2017-11-21T17:17:16.570Z,17.70
2017-11-21T17:19:43.287Z,14.30
2017-11-21T17:22:10.006Z,17.10
2017-11-21T17:24:36.730Z,22.30
2017-11-21T17:27:03.464Z,21.03
2017-11-21T17:29:30.182Z,22.57
2017-11-21T17:31:56.908Z,20.73
2017-11-21T17:34:23.639Z,24.63
2017-11-21T17:36:50.376Z,24.83
2017-11-21T17:39:17.129Z,22.80
2017-11-21T17:41:43.863Z,16.30
2017-11-21T17:44:10.590Z,14.33
2017-11-21T17:46:37.337Z,20.70
2017-11-21T17:49:04.088Z,20.33
2017-11-21T17:51:30.842Z,18.73
2017-11-21T17:53:57.585Z,14.20
2017-11-21T17:56:24.335Z,12.93
2017-11-21T17:58:51.100Z,16.70
2017-11-21T18:01:17.816Z,15.83
2017-11-21T18:03:44.554Z,15.53
2017-11-21T18:06:11.273Z,19.83
2017-11-21T18:08:37.993Z,14.43
2017-11-21T18:11:04.770Z,14.57
2017-11-21T18:13:31.509Z,11.50
2017-11-21T18:15:58.323Z,11.93
2017-11-21T18:18:25.044Z,14.47
2017-11-21T18:20:51.782Z,19.37
2017-11-21T18:23:18.534Z,12.27
2017-11-21T18:25:45.259Z,13.27
2017-11-21T18:28:11.995Z,13.70
2017-11-21T18:30:38.750Z,16.17
2017-11-21T18:33:05.521Z,15.43
2017-11-21T18:35:32.260Z,15.50
2017-11-21T18:37:58.983Z,12.43
2017-11-21T18:40:25.733Z,11.27
2017-11-21T18:42:52.452Z,13.23
2017-11-21T18:45:19.265Z,16.70
2017-11-21T18:47:45.986Z,17.93
2017-11-21T18:50:18.704Z,9.63
2017-11-21T18:52:45.430Z,14.80
2017-11-21T18:55:12.159Z,14.73
2017-11-21T18:57:38.882Z,12.80
2017-11-21T19:00:05.599Z,10.83
2017-11-21T19:02:32.346Z,12.17
2017-11-21T19:04:59.077Z,17.00
2017-11-21T19:07:25.813Z,16.23
2017-11-21T19:09:52.536Z,11.77
2017-11-21T19:12:19.274Z,12.33
2017-11-21T19:14:45.997Z,11.97
2017-11-21T19:17:12.720Z,10.77
2017-11-21T19:19:39.465Z,9.40
2017-11-21T19:22:06.244Z,15.60
2017-11-21T19:24:32.988Z,11.83
2017-11-21T19:26:59.716Z,12.03
2017-11-21T19:29:26.527Z,10.67
2017-11-21T19:31:53.267Z,15.00
2017-11-21T19:34:19.987Z,11.07
2017-11-21T19:36:46.730Z,11.00
2017-11-21T19:39:13.477Z,10.67
2017-11-21T19:41:40.212Z,12.60
2017-11-21T19:44:06.961Z,11.33
2017-11-21T19:46:33.704Z,8.90
2017-11-21T19:49:00.721Z,16.70
2017-11-21T19:51:27.449Z,10.50
2017-11-21T19:53:54.174Z,11.03
2017-11-21T19:56:20.900Z,14.93
2017-11-21T19:58:47.619Z,15.10
2017-11-21T20:01:14.349Z,10.80
2017-11-21T20:03:41.080Z,12.70
2017-11-21T20:06:07.832Z,13.80
2017-11-21T20:08:43.835Z,13.93
2017-11-21T20:11:11.128Z,11.63
2017-11-21T20:13:37.897Z,12.40
2017-11-21T20:16:04.644Z,14.10
2017-11-21T20:18:31.399Z,13.23
2017-11-21T20:20:58.124Z,12.13
2017-11-21T20:23:24.847Z,15.47
2017-11-21T20:25:51.682Z,14.70
2017-11-21T20:28:18.416Z,16.87
2017-11-21T20:30:45.184Z,19.30
2017-11-21T20:33:11.922Z,18.30
2017-11-21T20:35:38.686Z,12.70
2017-11-21T20:38:05.396Z,9.80
2017-11-21T20:40:32.360Z,17.03
2017-11-21T20:42:59.111Z,14.13
2017-11-21T20:45:25.861Z,13.40
2017-11-21T20:47:52.609Z,9.33
2017-11-21T20:50:19.327Z,10.63
2017-11-21T20:52:46.062Z,11.80
2017-11-21T20:55:12.801Z,9.50
2017-11-21T20:57:39.554Z,9.60
2017-11-21T21:00:06.351Z,13.63
2017-11-21T21:02:33.114Z,11.90
2017-11-21T21:04:59.921Z,9.77
2017-11-21T21:07:26.657Z,15.37
2017-11-21T21:09:53.566Z,16.37
2017-11-21T21:12:20.301Z,15.17
2017-11-21T21:14:47.198Z,14.03
2017-11-21T21:17:15.920Z,9.90
2017-11-21T21:19:43.397Z,11.70
2017-11-21T21:22:10.204Z,17.90
2017-11-21T21:24:36.942Z,17.47
2017-11-21T21:27:03.759Z,20.23
2017-11-21T21:29:30.690Z,12.73
2017-11-21T21:31:58.067Z,11.10
2017-11-21T21:34:25.150Z,11.50
2017-11-21T21:36:52.177Z,14.00
2017-11-21T21:39:18.914Z,13.87
2017-11-21T21:41:45.633Z,12.37
2017-11-21T21:44:12.390Z,12.57
2017-11-21T21:46:39.142Z,13.73
2017-11-21T21:49:06.420Z,14.20
2017-11-21T21:51:33.878Z,11.37
2017-11-21T21:54:01.046Z,17.33
2017-11-21T21:56:28.088Z,13.00
2017-11-21T21:58:54.835Z,17.07
2017-11-21T22:01:21.904Z,14.17
2017-11-21T22:03:48.624Z,13.00
2017-11-21T22:06:15.401Z,13.37
2017-11-21T22:08:42.124Z,12.20
2017-11-21T22:11:08.958Z,16.73
2017-11-21T22:13:35.757Z,13.90
2017-11-21T22:16:02.481Z,11.83
2017-11-21T22:18:29.200Z,17.67
2017-11-21T22:20:55.927Z,11.70
2017-11-21T22:23:22.657Z,17.33
2017-11-21T22:25:49.562Z,13.30
2017-11-21T22:28:16.273Z,10.80
2017-11-21T22:30:43.212Z,12.97
2017-11-21T22:33:09.961Z,16.17
2017-11-21T22:35:36.689Z,13.60
2017-11-21T22:38:03.453Z,18.30
2017-11-21T22:40:30.352Z,11.57
2017-11-21T22:42:57.178Z,14.47
2017-11-21T22:45:23.920Z,12.20
2017-11-21T22:47:50.646Z,14.50
2017-11-21T22:50:17.391Z,19.23
2017-11-21T22:52:44.108Z,18.33
2017-11-21T22:55:10.907Z,11.97
2017-11-21T22:57:37.654Z,16.30
2017-11-21T23:00:04.407Z,13.90
2017-11-21T23:02:31.144Z,11.30
2017-11-21T23:04:58.237Z,14.47
2017-11-21T23:07:25.054Z,12.63
2017-11-21T23:09:51.776Z,12.43
2017-11-21T23:12:18.520Z,11.97
2017-11-21T23:14:45.284Z,12.90
2017-11-21T23:17:12.004Z,19.43
2017-11-21T23:19:38.742Z,13.50
2017-11-21T23:22:05.495Z,13.00
2017-11-21T23:24:32.372Z,17.10
2017-11-21T23:26:59.105Z,14.93
2017-11-21T23:29:25.835Z,16.17
2017-11-21T23:31:52.569Z,13.30
2017-11-21T23:34:19.309Z,13.57
2017-11-21T23:36:46.044Z,11.80
2017-11-21T23:39:12.772Z,15.63
2017-11-21T23:41:39.525Z,12.60
2017-11-21T23:44:06.249Z,14.17
2017-11-21T23:46:32.982Z,14.00
2017-11-21T23:48:59.704Z,15.73
2017-11-21T23:51:26.422Z,15.80
2017-11-21T23:53:53.173Z,11.80
2017-11-21T23:56:19.917Z,15.70
2017-11-21T23:58:46.629Z,13.30
